Time;durP1;ratioP1;P1;durP2;ratioP2;P2;SDS_P1;SDS_P2;PMS_P1;PMS_P2;Temp;Humidity;BMP_temperature;BMP_pressure;BME280_temperature;BME280_humidity;BME280_pressure;Samples;Min_cycle;Max_cycle;Signal;HPM_P1;HPM_P2
2022/03/21 00:00:54;;;;;;;53.40;37.00;;;7.20;99.90;;;;;;4992082;28;20054;-68
2022/03/21 00:03:23;;;;;;;51.58;35.85;;;7.20;99.90;;;;;;4973842;28;20069;-70
2022/03/21 00:05:49;;;;;;;51.20;34.65;;;7.20;99.90;;;;;;4991868;28;20411;-70
2022/03/21 00:08:17;;;;;;;52.13;36.10;;;7.20;99.90;;;;;;4990251;28;20046;-69
2022/03/21 00:10:43;;;;;;;46.65;34.08;;;7.30;99.90;;;;;;4989727;28;20066;-69
2022/03/21 00:13:09;;;;;;;51.38;34.28;;;7.30;99.90;;;;;;4973043;28;20034;-70
2022/03/21 00:15:35;;;;;;;46.40;32.42;;;7.30;99.90;;;;;;4990615;28;20054;-69
2022/03/21 00:18:03;;;;;;;46.50;32.28;;;8.20;99.90;;;;;;4971968;28;20394;-70
2022/03/21 00:20:31;;;;;;;44.95;31.58;;;7.30;99.90;;;;;;4972756;28;20054;-70
2022/03/21 00:22:57;;;;;;;44.63;30.35;;;7.30;99.90;;;;;;4989933;28;20042;-70
2022/03/21 00:25:23;;;;;;;45.95;30.50;;;7.30;99.90;;;;;;4989600;28;20050;-69
2022/03/21 00:27:49;;;;;;;44.22;29.55;;;7.30;99.90;;;;;;4991181;28;20347;-69
2022/03/21 00:30:15;;;;;;;45.63;31.38;;;7.30;99.90;;;;;;4992888;28;20112;-69
2022/03/21 00:32:41;;;;;;;45.03;30.02;;;7.30;99.90;;;;;;4988842;28;20097;-69
2022/03/21 00:35:08;;;;;;;44.47;29.45;;;7.30;99.90;;;;;;4972783;28;20042;-69
2022/03/21 00:37:36;;;;;;;44.17;28.15;;;7.30;99.90;;;;;;4989485;28;20118;-69
2022/03/21 00:40:03;;;;;;;44.85;29.08;;;8.00;99.90;;;;;;4970929;28;20051;-69
2022/03/21 00:42:29;;;;;;;43.33;30.20;;;7.20;99.90;;;;;;4986031;28;20061;-70
2022/03/21 00:44:56;;;;;;;42.33;27.95;;;8.30;99.90;;;;;;4990075;28;20395;-69
2022/03/21 00:47:22;;;;;;;39.13;28.50;;;7.20;99.90;;;;;;4988948;28;20545;-70
2022/03/21 00:49:48;;;;;;;43.28;29.20;;;7.20;99.90;;;;;;4989517;28;20247;-70
2022/03/21 00:52:14;;;;;;;46.10;29.17;;;7.20;99.90;;;;;;4991939;28;20521;-69
2022/03/21 00:54:40;;;;;;;39.45;28.17;;;7.10;99.90;;;;;;4991345;28;20487;-69
2022/03/21 00:57:06;;;;;;;42.17;28.23;;;7.10;99.90;;;;;;4992143;28;20387;-69
2022/03/21 00:59:32;;;;;;;42.88;29.15;;;7.10;99.90;;;;;;4989327;28;20042;-69
2022/03/21 01:01:57;;;;;;;39.47;27.77;;;7.10;99.90;;;;;;4989454;28;20038;-69
2022/03/21 01:04:23;;;;;;;40.95;26.67;;;7.00;99.90;;;;;;4989239;28;20050;-69
2022/03/21 01:06:49;;;;;;;38.92;26.50;;;7.00;99.90;;;;;;4988141;28;20050;-69
2022/03/21 01:09:17;;;;;;;41.85;27.83;;;7.00;99.90;;;;;;4989574;28;20046;-69
2022/03/21 01:11:43;;;;;;;39.97;26.55;;;7.00;99.90;;;;;;4972015;28;20049;-69
2022/03/21 01:14:10;;;;;;;39.90;26.73;;;7.00;99.90;;;;;;4989192;28;20054;-69
2022/03/21 01:16:36;;;;;;;36.15;25.70;;;7.00;99.90;;;;;;4989233;28;20042;-70
2022/03/21 01:19:02;;;;;;;37.30;25.60;;;6.90;99.90;;;;;;4989153;28;20134;-69
2022/03/21 01:21:29;;;;;;;39.03;26.05;;;6.90;99.90;;;;;;4987831;28;20050;-69
2022/03/21 01:23:55;;;;;;;38.03;25.63;;;6.80;99.90;;;;;;4989830;28;20046;-69
2022/03/21 01:26:21;;;;;;;37.25;25.45;;;6.80;99.90;;;;;;4991035;28;20376;-69
2022/03/21 01:28:46;;;;;;;37.78;25.83;;;6.80;99.90;;;;;;4988159;28;20030;-70
2022/03/21 01:31:12;;;;;;;36.33;23.23;;;6.80;99.90;;;;;;4990916;28;20638;-69
2022/03/21 01:33:38;;;;;;;35.42;24.02;;;6.80;99.90;;;;;;4988868;28;20042;-69
2022/03/21 01:36:05;;;;;;;34.10;22.80;;;6.80;99.90;;;;;;4987547;28;20046;-70
2022/03/21 01:38:30;;;;;;;35.85;23.73;;;6.80;99.90;;;;;;4969715;28;20617;-70
2022/03/21 01:40:56;;;;;;;35.95;24.63;;;6.80;99.90;;;;;;4988095;28;20152;-70
2022/03/21 01:43:21;;;;;;;33.83;22.60;;;6.70;99.90;;;;;;4971498;28;20514;-69
2022/03/21 01:45:47;;;;;;;34.40;22.50;;;6.80;99.90;;;;;;4989166;28;20041;-69
2022/03/21 01:48:13;;;;;;;32.95;22.48;;;6.70;99.90;;;;;;4988623;28;20096;-69
2022/03/21 01:50:40;;;;;;;32.25;20.85;;;6.60;99.90;;;;;;4969397;28;20129;-70
2022/03/21 01:55:50;;;;;;;37.70;21.65;;;6.60;99.90;;;;;;4968600;28;20152;-69
2022/03/21 01:58:16;;;;;;;29.45;21.10;;;6.50;99.90;;;;;;4981708;28;20074;-69
2022/03/21 02:00:43;;;;;;;30.52;20.30;;;6.50;99.90;;;;;;4970836;28;20486;-69
2022/03/21 02:03:09;;;;;;;33.95;20.65;;;6.40;99.90;;;;;;4970562;28;20044;-69
2022/03/21 02:05:37;;;;;;;32.33;20.50;;;6.40;99.90;;;;;;4990306;28;20046;-69
2022/03/21 02:08:03;;;;;;;28.60;20.42;;;6.40;99.90;;;;;;4988508;28;20157;-70
2022/03/21 02:10:29;;;;;;;32.17;19.45;;;6.40;99.90;;;;;;4987598;28;20471;-70
2022/03/21 02:12:55;;;;;;;29.05;19.33;;;6.30;99.90;;;;;;4988340;28;20081;-69
2022/03/21 02:15:20;;;;;;;29.55;19.30;;;6.40;99.90;;;;;;4971945;28;20062;-69
2022/03/21 02:17:47;;;;;;;31.55;19.27;;;6.30;99.90;;;;;;4986457;28;20069;-70
2022/03/21 02:20:17;;;;;;;27.50;18.92;;;6.30;99.90;;;;;;4987957;28;20086;-69
2022/03/21 02:22:58;;;;;;;29.20;18.27;;;6.30;99.90;;;;;;4987623;28;20053;-69
2022/03/21 02:25:32;;;;;;;29.20;18.52;;;6.20;99.90;;;;;;4988401;28;20053;-69
2022/03/21 02:28:04;;;;;;;31.98;18.77;;;6.30;99.90;;;;;;4988553;28;20043;-69
2022/03/21 02:30:34;;;;;;;27.42;17.13;;;7.30;99.90;;;;;;4988224;28;20066;-69
2022/03/21 02:33:01;;;;;;;30.42;18.58;;;6.20;99.90;;;;;;4987348;28;20120;-69
2022/03/21 02:35:29;;;;;;;31.15;18.95;;;6.20;99.90;;;;;;4971720;28;20541;-69
2022/03/21 02:37:56;;;;;;;28.75;17.92;;;6.10;99.90;;;;;;4988095;28;20192;-70
2022/03/21 02:40:22;;;;;;;29.33;17.90;;;6.10;99.90;;;;;;4988428;28;20092;-69
2022/03/21 02:42:49;;;;;;;27.77;17.75;;;6.10;99.90;;;;;;4990561;28;20034;-70
2022/03/21 02:45:15;;;;;;;24.00;16.85;;;6.00;99.90;;;;;;4972913;28;20125;-70
2022/03/21 02:47:41;;;;;;;27.13;17.02;;;5.90;99.90;;;;;;4987958;28;20125;-69
2022/03/21 02:50:12;;;;;;;29.55;18.23;;;5.90;99.90;;;;;;4989155;28;20058;-69
2022/03/21 02:52:38;;;;;;;29.73;17.67;;;5.90;99.90;;;;;;4987730;28;20085;-69
2022/03/21 02:55:05;;;;;;;29.50;18.38;;;7.00;99.90;;;;;;4970980;28;20088;-69
2022/03/21 02:57:32;;;;;;;26.25;17.02;;;5.80;99.90;;;;;;4988277;28;20217;-69
2022/03/21 02:59:58;;;;;;;30.20;16.67;;;5.80;99.90;;;;;;4987535;28;20435;-69
2022/03/21 03:02:24;;;;;;;25.58;16.05;;;5.80;99.90;;;;;;4988345;28;20454;-70
2022/03/21 03:04:50;;;;;;;28.98;16.85;;;5.80;99.90;;;;;;4971979;28;20060;-69
2022/03/21 03:07:16;;;;;;;26.83;16.27;;;5.70;99.90;;;;;;4972155;28;20471;-69
2022/03/21 03:09:41;;;;;;;23.33;15.88;;;5.80;99.90;;;;;;4991373;28;20084;-70
2022/03/21 03:12:08;;;;;;;26.67;16.15;;;5.70;99.90;;;;;;4992015;28;20471;-70
2022/03/21 03:14:34;;;;;;;28.08;17.80;;;5.70;99.90;;;;;;4973645;28;20455;-69
2022/03/21 03:17:01;;;;;;;26.08;16.05;;;5.60;99.90;;;;;;4991111;28;20078;-69
2022/03/21 03:19:27;;;;;;;23.27;15.30;;;6.30;99.90;;;;;;4991886;28;20085;-69
2022/03/21 03:21:54;;;;;;;28.38;17.95;;;5.60;99.90;;;;;;4990657;28;20447;-69
2022/03/21 03:24:21;;;;;;;32.70;17.05;;;5.60;99.90;;;;;;4991404;28;20125;-69
2022/03/21 03:26:48;;;;;;;31.73;16.92;;;5.60;99.90;;;;;;4990885;28;20117;-69
2022/03/21 03:29:14;;;;;;;24.92;16.33;;;5.50;99.90;;;;;;4991187;28;20046;-70
2022/03/21 03:31:40;;;;;;;24.48;16.02;;;5.50;99.90;;;;;;4991141;28;20448;-70
2022/03/21 03:34:06;;;;;;;26.40;15.85;;;5.50;99.90;;;;;;4973244;28;20111;-69
2022/03/21 03:36:32;;;;;;;23.98;15.93;;;5.40;99.90;;;;;;4990745;28;20128;-69
2022/03/21 03:38:57;;;;;;;28.30;16.55;;;5.40;99.90;;;;;;4990632;28;20220;-69
2022/03/21 03:41:24;;;;;;;27.63;16.23;;;5.40;99.90;;;;;;4973667;28;20145;-69
2022/03/21 03:43:50;;;;;;;27.25;16.17;;;5.30;99.90;;;;;;4975786;28;20054;-69
2022/03/21 03:46:19;;;;;;;27.92;16.77;;;6.40;99.90;;;;;;4992460;28;20406;-70
2022/03/21 03:48:46;;;;;;;28.85;16.55;;;6.10;99.90;;;;;;4989925;28;20054;-69
2022/03/21 03:51:12;;;;;;;25.35;16.38;;;5.40;99.90;;;;;;4991887;28;20041;-69
2022/03/21 03:53:39;;;;;;;26.58;17.20;;;5.50;99.90;;;;;;4992958;28;20118;-69
2022/03/21 03:56:06;;;;;;;25.15;16.85;;;5.40;99.90;;;;;;4990397;28;20034;-69
2022/03/21 03:58:33;;;;;;;26.52;16.60;;;5.50;99.90;;;;;;4990491;28;20050;-69
2022/03/21 04:00:59;;;;;;;25.67;16.25;;;5.40;99.90;;;;;;4990707;28;20486;-69
2022/03/21 04:06:08;;;;;;;28.90;17.30;;;5.40;99.90;;;;;;4989736;28;20051;-69
2022/03/21 04:08:34;;;;;;;28.75;17.00;;;5.40;99.90;;;;;;4990199;28;20399;-70
2022/03/21 04:11:00;;;;;;;28.10;17.60;;;5.40;99.90;;;;;;4991809;28;20129;-69
2022/03/21 04:13:25;;;;;;;25.67;16.42;;;5.30;99.90;;;;;;4991045;28;20384;-69
2022/03/21 04:15:51;;;;;;;29.27;17.17;;;5.30;99.90;;;;;;4989732;28;20054;-69
2022/03/21 04:18:17;;;;;;;28.20;16.77;;;6.20;99.90;;;;;;4972301;28;20096;-69
2022/03/21 04:20:42;;;;;;;26.88;17.27;;;5.30;99.90;;;;;;4989563;28;20058;-69
2022/03/21 04:23:09;;;;;;;28.48;17.25;;;5.20;99.90;;;;;;4990475;28;20080;-69
2022/03/21 04:25:35;;;;;;;29.63;17.05;;;5.20;99.90;;;;;;4989895;28;20049;-69
2022/03/21 04:28:08;;;;;;;29.98;18.30;;;5.20;99.90;;;;;;4990464;28;20117;-69
2022/03/21 04:30:34;;;;;;;27.40;16.98;;;5.10;99.90;;;;;;4989699;28;20483;-69
2022/03/21 04:32:59;;;;;;;28.58;17.45;;;5.10;99.90;;;;;;4986255;28;20038;-69
2022/03/21 04:35:26;;;;;;;25.30;16.80;;;5.10;99.90;;;;;;4990705;28;20403;-70
2022/03/21 04:37:52;;;;;;;29.42;17.60;;;5.00;99.90;;;;;;4988410;28;20514;-69
2022/03/21 04:40:18;;;;;;;28.80;17.42;;;5.10;99.90;;;;;;4990162;28;20042;-69
2022/03/21 04:42:43;;;;;;;29.15;18.20;;;5.10;99.90;;;;;;4989818;28;20042;-69
2022/03/21 04:45:09;;;;;;;33.58;17.90;;;5.10;99.90;;;;;;4989094;28;20121;-69
2022/03/21 04:47:35;;;;;;;28.40;18.02;;;5.00;99.90;;;;;;4989805;28;20105;-69
2022/03/21 04:50:01;;;;;;;29.00;17.95;;;5.00;99.90;;;;;;4989171;28;20054;-69
2022/03/21 04:52:26;;;;;;;28.30;17.27;;;5.00;99.90;;;;;;4955586;28;20035;-70
2022/03/21 04:54:52;;;;;;;31.70;18.30;;;5.10;99.90;;;;;;4989363;28;20176;-69
2022/03/21 04:57:23;;;;;;;27.65;17.33;;;5.00;99.90;;;;;;4989916;28;20050;-69
2022/03/21 04:59:49;;;;;;;33.72;17.30;;;5.00;99.90;;;;;;4988410;28;20061;-69
2022/03/21 05:02:15;;;;;;;31.90;18.80;;;5.00;99.90;;;;;;4989533;28;20069;-69
2022/03/21 05:04:40;;;;;;;30.02;17.38;;;5.00;99.90;;;;;;4988973;28;20046;-69
2022/03/21 05:07:06;;;;;;;29.23;17.42;;;5.00;99.90;;;;;;4984468;28;20039;-69
2022/03/21 05:09:32;;;;;;;29.35;18.08;;;5.00;99.90;;;;;;4989491;28;20052;-69
2022/03/21 05:11:58;;;;;;;29.70;18.00;;;5.00;99.90;;;;;;4989426;28;20380;-69
2022/03/21 05:14:23;;;;;;;31.55;19.60;;;5.00;99.90;;;;;;4989159;28;20514;-69
2022/03/21 05:16:50;;;;;;;29.17;17.85;;;4.90;99.90;;;;;;4988872;28;20458;-69
2022/03/21 05:19:16;;;;;;;32.22;18.65;;;4.80;99.90;;;;;;4988505;28;20546;-69
2022/03/21 05:21:41;;;;;;;29.58;18.30;;;4.90;99.90;;;;;;4987835;28;20050;-69
2022/03/21 05:32:25;;;;;;;29.48;18.13;;;4.80;99.90;;;;;;4989390;28;20126;-69
2022/03/21 05:37:35;;;;;;;28.38;18.15;;;4.80;99.90;;;;;;4988323;28;20050;-69
2022/03/21 05:42:45;;;;;;;30.27;19.15;;;5.50;99.90;;;;;;4988882;28;20050;-69
2022/03/21 05:45:11;;;;;;;34.53;19.75;;;4.90;99.90;;;;;;4968825;28;20054;-69
2022/03/21 05:48:50;;;;;;;28.40;19.30;;;4.80;99.90;;;;;;4985648;28;20118;-70
2022/03/21 05:50:22;;;;;;;29.88;18.80;;;4.80;99.90;;;;;;4988126;28;20471;-69
2022/03/21 05:52:48;;;;;;;32.17;19.73;;;4.70;99.90;;;;;;4987752;28;20053;-69
2022/03/21 05:55:13;;;;;;;31.67;19.17;;;4.70;99.90;;;;;;4987782;28;20061;-69
2022/03/21 05:57:39;;;;;;;29.90;18.83;;;4.70;99.90;;;;;;4987902;28;20129;-69
2022/03/21 06:00:20;;;;;;;30.38;18.75;;;4.70;99.90;;;;;;4970853;28;20157;-69
2022/03/21 06:02:46;;;;;;;32.53;19.85;;;4.80;99.90;;;;;;4978212;28;20070;-69
2022/03/21 06:05:12;;;;;;;35.10;20.30;;;4.80;99.90;;;;;;4988552;28;20073;-69
2022/03/21 06:07:38;;;;;;;34.83;20.13;;;4.80;99.90;;;;;;4985667;28;20044;-69
2022/03/21 06:10:04;;;;;;;31.48;19.70;;;4.80;99.90;;;;;;4970192;28;20042;-69
2022/03/21 06:12:32;;;;;;;36.33;19.73;;;4.80;99.90;;;;;;4987940;28;20426;-70
2022/03/21 06:14:59;;;;;;;32.92;20.27;;;4.80;99.90;;;;;;4988336;28;20531;-69
2022/03/21 06:17:25;;;;;;;32.55;20.38;;;4.90;99.90;;;;;;4987612;28;20372;-70
2022/03/21 06:19:51;;;;;;;30.98;20.42;;;4.90;99.90;;;;;;4987337;28;20050;-70
2022/03/21 06:22:17;;;;;;;32.58;20.05;;;4.90;99.90;;;;;;4987991;28;20047;-70
2022/03/21 06:24:42;;;;;;;31.60;19.88;;;4.90;99.90;;;;;;4987662;28;20056;-70
2022/03/21 06:27:08;;;;;;;34.55;20.70;;;5.00;99.90;;;;;;4970432;28;20051;-70
2022/03/21 06:29:34;;;;;;;38.95;20.15;;;5.00;99.90;;;;;;4970018;28;20046;-69
2022/03/21 06:31:59;;;;;;;33.38;20.10;;;5.10;99.90;;;;;;4982771;28;20392;-69
2022/03/21 06:34:28;;;;;;;35.60;20.20;;;5.20;99.90;;;;;;4987322;28;20108;-70
2022/03/21 06:36:54;;;;;;;37.17;20.00;;;5.30;99.90;;;;;;4987900;28;20049;-70
2022/03/21 06:39:19;;;;;;;32.83;19.98;;;5.30;99.90;;;;;;4993177;28;20475;-70
2022/03/21 06:41:45;;;;;;;36.63;19.75;;;5.40;99.90;;;;;;4993573;28;20074;-69
2022/03/21 06:44:11;;;;;;;32.47;19.75;;;6.30;99.90;;;;;;4991527;28;20050;-68
2022/03/21 06:46:37;;;;;;;29.63;19.25;;;5.60;99.90;;;;;;4991161;28;20046;-69
2022/03/21 06:49:03;;;;;;;32.13;19.23;;;5.70;99.90;;;;;;4991150;28;20049;-70
2022/03/21 06:51:29;;;;;;;31.40;19.38;;;5.80;99.90;;;;;;4972488;28;20050;-70
2022/03/21 06:53:55;;;;;;;33.03;19.00;;;5.90;99.90;;;;;;4990672;28;20050;-70
2022/03/21 06:56:21;;;;;;;35.08;20.48;;;6.10;99.90;;;;;;4991867;28;20053;-69
2022/03/21 06:58:46;;;;;;;30.67;20.10;;;7.20;99.90;;;;;;4989848;28;20053;-70
2022/03/21 07:01:12;;;;;;;31.98;20.55;;;6.80;99.90;;;;;;4991033;28;20046;-69
2022/03/21 07:03:37;;;;;;;28.83;20.80;;;8.60;99.90;;;;;;4991159;28;20456;-70
2022/03/21 07:06:03;;;;;;;31.15;19.60;;;10.50;99.90;;;;;;4988610;28;20074;-70
2022/03/21 07:08:29;;;;;;;28.00;19.02;;;11.90;99.90;;;;;;4969305;28;20130;-71
2022/03/21 07:10:55;;;;;;;29.10;19.23;;;13.30;99.90;;;;;;4972724;28;20457;-71
2022/03/21 07:13:22;;;;;;;29.50;20.23;;;15.50;99.90;;;;;;4989083;28;20077;-71
2022/03/21 07:15:47;;;;;;;33.50;19.63;;;15.70;99.90;;;;;;4990310;28;20434;-70
2022/03/21 07:18:13;;;;;;;28.73;20.25;;;16.60;99.90;;;;;;4989792;28;20046;-70
2022/03/21 07:20:42;;;;;;;30.05;19.48;;;17.60;99.90;;;;;;4989046;28;20085;-71
2022/03/21 07:23:08;;;;;;;29.13;20.20;;;18.40;99.90;;;;;;4990793;28;20058;-71
2022/03/21 07:25:33;;;;;;;28.35;20.20;;;18.80;99.90;;;;;;4983856;28;20265;-71
2022/03/21 07:27:59;;;;;;;27.58;19.08;;;19.40;99.90;;;;;;4973334;28;20043;-70
2022/03/21 07:30:26;;;;;;;27.98;19.00;;;20.20;99.90;;;;;;4990902;28;20442;-71
2022/03/21 07:32:52;;;;;;;25.48;18.45;;;21.20;99.10;;;;;;4953006;28;20050;-70
2022/03/21 07:35:17;;;;;;;25.40;18.17;;;21.60;97.10;;;;;;4970316;28;20462;-70
2022/03/21 07:37:53;;;;;;;25.05;16.65;;;21.60;96.00;;;;;;4971441;28;20137;-71
2022/03/21 07:40:20;;;;;;;23.67;17.45;;;22.10;95.10;;;;;;4970172;28;20146;-70
2022/03/21 07:42:47;;;;;;;20.13;15.40;;;22.40;94.10;;;;;;4971441;28;20046;-71
2022/03/21 07:48:00;;;;;;;25.58;16.67;;;23.50;88.30;;;;;;4991405;28;20136;-69
2022/03/21 07:50:26;;;;;;;22.25;16.73;;;22.60;87.80;;;;;;4991404;28;20050;-70
2022/03/21 07:52:54;;;;;;;24.70;15.93;;;20.90;89.40;;;;;;4972124;28;20081;-70
2022/03/21 07:55:20;;;;;;;21.40;16.27;;;19.00;91.30;;;;;;4989529;28;20046;-69
2022/03/21 07:57:46;;;;;;;23.02;16.90;;;17.50;94.90;;;;;;4989361;28;20490;-70
2022/03/21 08:00:13;;;;;;;25.95;17.13;;;16.20;99.10;;;;;;4988959;28;20039;-70
2022/03/21 08:02:39;;;;;;;24.67;17.05;;;15.30;99.90;;;;;;4988871;28;20050;-69
2022/03/21 08:05:05;;;;;;;25.02;17.00;;;14.50;99.90;;;;;;4990537;28;20117;-69
2022/03/21 08:07:32;;;;;;;27.33;17.70;;;14.00;99.90;;;;;;4969548;28;20053;-70
2022/03/21 08:09:58;;;;;;;24.27;17.63;;;14.10;99.90;;;;;;4969182;28;20039;-69
2022/03/21 08:12:24;;;;;;;23.98;16.58;;;13.20;99.90;;;;;;4985189;28;20104;-70
2022/03/21 08:14:51;;;;;;;25.83;17.50;;;13.00;99.90;;;;;;4988886;28;20140;-70
2022/03/21 08:17:18;;;;;;;23.92;16.80;;;12.80;99.90;;;;;;4990869;28;20048;-69
2022/03/21 08:19:44;;;;;;;24.23;17.10;;;12.50;99.90;;;;;;4990317;28;20061;-70
2022/03/21 08:22:10;;;;;;;24.67;16.40;;;12.40;99.90;;;;;;4984678;28;20376;-70
2022/03/21 08:24:36;;;;;;;30.02;17.35;;;12.40;99.90;;;;;;4988829;28;20069;-70
2022/03/21 08:27:05;;;;;;;25.35;15.85;;;12.00;99.90;;;;;;4953119;28;20039;-70
2022/03/21 08:29:31;;;;;;;28.85;17.58;;;12.10;99.90;;;;;;4957610;28;20049;-70
2022/03/21 08:31:57;;;;;;;28.35;17.65;;;12.00;99.90;;;;;;4993855;28;20399;-70
2022/03/21 08:34:22;;;;;;;29.90;17.80;;;12.00;99.90;;;;;;4991218;28;20089;-70
2022/03/21 08:36:48;;;;;;;26.25;17.88;;;12.20;99.90;;;;;;4984394;28;20054;-71
2022/03/21 08:39:14;;;;;;;28.10;17.85;;;12.30;99.90;;;;;;4988739;28;20543;-70
2022/03/21 08:41:39;;;;;;;25.15;18.08;;;12.30;99.90;;;;;;4991930;28;20172;-71
2022/03/21 08:44:05;;;;;;;26.65;17.55;;;13.30;99.90;;;;;;4991343;28;20046;-71
2022/03/21 08:46:31;;;;;;;27.02;18.17;;;12.50;99.90;;;;;;4971528;28;20050;-71
2022/03/21 08:51:43;;;;;;;27.02;17.92;;;13.30;99.90;;;;;;4988074;28;20046;-71
2022/03/21 08:54:09;;;;;;;26.33;17.20;;;13.50;99.90;;;;;;4988903;28;20093;-70
2022/03/21 08:56:35;;;;;;;27.20;19.05;;;14.70;99.90;;;;;;4989191;28;20109;-71
2022/03/21 08:59:01;;;;;;;26.13;17.70;;;17.70;99.90;;;;;;4987744;28;20513;-71
2022/03/21 09:01:27;;;;;;;25.55;18.23;;;20.30;94.60;;;;;;4988201;28;20092;-71
2022/03/21 09:03:54;;;;;;;23.65;17.42;;;22.20;90.70;;;;;;4978704;28;20372;-72
2022/03/21 09:06:22;;;;;;;24.15;17.10;;;23.90;82.20;;;;;;4984550;28;20388;-70
2022/03/21 09:08:49;;;;;;;25.17;15.90;;;26.20;74.30;;;;;;4971627;28;20058;-70
2022/03/21 09:11:17;;;;;;;21.90;15.68;;;27.10;64.40;;;;;;4988777;28;20126;-70
2022/03/21 09:13:44;;;;;;;22.08;15.88;;;27.80;59.60;;;;;;4971257;28;20051;-70
2022/03/21 09:16:11;;;;;;;20.38;15.00;;;28.70;55.80;;;;;;4955532;28;20102;-71
2022/03/21 09:18:36;;;;;;;23.33;15.15;;;29.30;55.50;;;;;;4988688;28;20454;-71
2022/03/21 09:21:02;;;;;;;25.15;15.23;;;30.00;53.00;;;;;;4986647;28;20065;-71
2022/03/21 09:23:28;;;;;;;24.38;15.68;;;30.40;51.10;;;;;;4970950;28;20050;-71
2022/03/21 09:25:54;;;;;;;21.00;15.30;;;30.80;50.70;;;;;;4987465;28;20046;-70
2022/03/21 09:28:19;;;;;;;23.90;15.05;;;31.20;48.40;;;;;;4988984;28;20105;-70
2022/03/21 09:30:45;;;;;;;23.95;15.57;;;30.90;47.70;;;;;;4986738;28;20542;-71
2022/03/21 09:33:10;;;;;;;18.83;14.85;;;31.30;46.80;;;;;;4956500;28;20190;-70
2022/03/21 09:35:37;;;;;;;20.38;14.95;;;31.70;45.70;;;;;;4988525;28;20506;-70
2022/03/21 09:38:03;;;;;;;20.02;15.15;;;32.40;46.00;;;;;;4988368;28;20062;-71
2022/03/21 09:40:29;;;;;;;19.80;14.35;;;33.10;45.80;;;;;;4987582;28;20204;-71
2022/03/21 09:42:55;;;;;;;19.13;14.15;;;33.60;44.40;;;;;;4988518;28;20042;-70
2022/03/21 09:45:21;;;;;;;20.45;15.10;;;33.80;43.60;;;;;;4987659;28;20060;-71
2022/03/21 09:50:34;;;;;;;22.20;14.63;;;34.30;42.70;;;;;;4968504;28;20049;-71
2022/03/21 09:53:00;;;;;;;16.73;13.65;;;34.80;41.40;;;;;;4986211;28;20042;-72
2022/03/21 09:55:26;;;;;;;20.55;13.80;;;35.20;39.80;;;;;;4986393;28;20049;-70
2022/03/21 09:57:51;;;;;;;18.63;14.23;;;35.10;39.40;;;;;;4988376;28;20042;-70
2022/03/21 10:00:17;;;;;;;18.38;14.85;;;35.30;38.80;;;;;;4987998;28;20050;-71
2022/03/21 10:02:43;;;;;;;18.52;14.77;;;35.20;38.40;;;;;;4987616;28;20050;-71
2022/03/21 10:05:29;;;;;;;19.33;14.10;;;35.30;38.70;;;;;;4987447;28;20042;-72
2022/03/21 10:08:08;;;;;;;19.45;13.77;;;35.30;37.70;;;;;;4966383;28;20125;-71
2022/03/21 10:10:34;;;;;;;20.50;14.15;;;35.60;37.30;;;;;;4970118;28;20051;-71
2022/03/21 10:13:00;;;;;;;18.30;13.60;;;35.60;37.30;;;;;;4951215;28;20117;-70
2022/03/21 10:15:28;;;;;;;17.40;13.60;;;36.30;36.70;;;;;;4965542;28;20065;-69
2022/03/21 10:18:08;;;;;;;17.13;13.85;;;36.50;37.50;;;;;;4985125;28;20047;-69
2022/03/21 10:20:35;;;;;;;20.45;14.13;;;36.70;36.30;;;;;;4966864;28;20134;-70
2022/03/21 10:23:18;;;;;;;17.20;13.63;;;37.00;36.00;;;;;;4977915;28;20054;-72
2022/03/21 10:25:44;;;;;;;19.27;13.95;;;36.30;36.20;;;;;;4988715;28;20042;-72
2022/03/21 10:28:30;;;;;;;16.02;13.30;;;37.10;36.30;;;;;;4970138;28;20050;-73
2022/03/21 10:30:56;;;;;;;16.00;12.63;;;37.90;35.00;;;;;;4985091;28;20049;-72
2022/03/21 10:33:24;;;;;;;16.50;12.23;;;38.70;33.80;;;;;;4971331;28;20086;-72
2022/03/21 10:35:49;;;;;;;17.13;12.70;;;38.50;33.60;;;;;;4970504;28;20042;-72
2022/03/21 10:38:32;;;;;;;21.95;13.48;;;38.10;33.20;;;;;;4970362;28;20364;-72
2022/03/21 10:41:06;;;;;;;17.10;12.48;;;38.10;32.50;;;;;;4988135;28;20062;-71
2022/03/21 10:43:32;;;;;;;15.07;12.45;;;38.50;31.70;;;;;;4986414;28;20047;-71
2022/03/21 10:45:57;;;;;;;16.55;12.95;;;39.20;31.60;;;;;;4988275;28;20050;-71
2022/03/21 10:48:31;;;;;;;15.38;12.50;;;39.00;31.90;;;;;;4988053;28;20034;-71
2022/03/21 10:50:59;;;;;;;17.33;12.90;;;39.20;31.80;;;;;;4968861;28;20058;-71
2022/03/21 10:53:34;;;;;;;16.25;13.18;;;39.00;31.90;;;;;;4988868;28;20046;-71
2022/03/21 10:56:01;;;;;;;;;;;38.80;32.00;;;;;;4988975;28;20049;-71
2022/03/21 10:58:35;;;;;;;18.38;14.00;;;39.00;32.10;;;;;;4970556;28;20000;-71
2022/03/21 11:01:19;;;;;;;18.38;13.93;;;39.50;31.80;;;;;;4987692;28;20047;-71
2022/03/21 11:03:50;;;;;;;15.90;12.95;;;39.70;31.90;;;;;;4971415;28;20108;-71
2022/03/21 11:06:16;;;;;;;16.80;12.65;;;39.90;32.00;;;;;;4969490;28;20047;-71
2022/03/21 11:08:44;;;;;;;17.15;14.15;;;39.80;32.00;;;;;;4970128;28;20111;-71
2022/03/21 11:11:10;;;;;;;16.17;13.10;;;39.90;31.60;;;;;;4967693;28;20420;-72
2022/03/21 11:13:37;;;;;;;19.75;13.27;;;40.10;31.50;;;;;;4957577;28;20042;-72
2022/03/21 11:16:03;;;;;;;15.05;12.68;;;40.00;31.50;;;;;;4987715;28;20454;-72
2022/03/21 11:18:29;;;;;;;16.42;13.35;;;40.00;31.60;;;;;;4969409;28;20486;-72
2022/03/21 11:20:59;;;;;;;15.45;13.23;;;40.40;30.90;;;;;;4989109;28;20064;-71
2022/03/21 11:23:25;;;;;;;14.55;12.50;;;40.10;31.10;;;;;;4987910;28;20085;-72
2022/03/21 11:26:00;;;;;;;16.83;12.82;;;40.80;31.00;;;;;;4971210;28;20384;-72
2022/03/21 11:29:02;;;;;;;15.73;11.95;;;41.20;31.00;;;;;;4993234;28;20050;-72
2022/03/21 11:32:06;;;;;;;13.68;12.27;;;41.60;31.10;;;;;;4991163;28;20633;-72
2022/03/21 11:35:04;;;;;;;17.30;13.27;;;41.20;30.30;;;;;;4989955;28;20530;-71
2022/03/21 11:37:32;;;;;;;16.45;12.85;;;40.70;30.30;;;;;;4974248;28;20061;-72
2022/03/21 11:40:36;;;;;;;14.85;13.10;;;40.20;30.50;;;;;;4974607;28;20486;-71
2022/03/21 11:43:17;;;;;;;14.73;12.90;;;39.60;30.80;;;;;;4973060;28;20053;-71
2022/03/21 11:45:47;;;;;;;14.45;12.70;;;39.20;30.70;;;;;;4982644;28;20217;-71
2022/03/21 11:48:33;;;;;;;16.35;12.45;;;39.10;30.80;;;;;;4970709;28;20403;-72
2022/03/21 11:50:59;;;;;;;16.35;12.40;;;39.20;30.60;;;;;;4969201;28;20103;-72
2022/03/21 11:53:33;;;;;;;14.63;12.23;;;38.80;30.80;;;;;;4970702;28;20460;-72
2022/03/21 11:56:00;;;;;;;16.25;12.70;;;38.60;31.10;;;;;;4977099;28;20046;-72
2022/03/21 11:58:41;;;;;;;15.35;11.90;;;39.10;30.60;;;;;;4990905;28;20046;-71
2022/03/21 12:01:30;;;;;;;16.67;12.68;;;39.10;30.20;;;;;;4990023;28;20097;-71
2022/03/21 12:04:26;;;;;;;16.42;12.30;;;38.40;31.10;;;;;;4974339;28;20042;-71
2022/03/21 12:07:20;;;;;;;14.25;11.35;;;38.30;30.60;;;;;;4989215;28;20267;-72
2022/03/21 12:09:49;;;;;;;14.53;11.30;;;38.60;30.40;;;;;;4988447;28;20034;-73
2022/03/21 12:12:18;;;;;;;15.98;11.50;;;38.50;30.60;;;;;;4990087;28;20393;-72
2022/03/21 12:14:45;;;;;;;16.67;11.98;;;38.70;30.50;;;;;;4971728;28;20053;-71
2022/03/21 12:17:11;;;;;;;14.65;11.93;;;38.50;30.30;;;;;;4990335;28;20054;-72
2022/03/21 12:19:46;;;;;;;16.80;11.80;;;38.10;30.20;;;;;;4989828;28;20470;-71
2022/03/21 12:22:43;;;;;;;17.55;11.15;;;37.10;30.40;;;;;;4989099;28;20507;-71
2022/03/21 12:25:17;;;;;;;14.20;11.35;;;36.70;30.60;;;;;;4989999;28;20423;-71
2022/03/21 12:27:46;;;;;;;17.00;12.32;;;36.50;30.80;;;;;;4989990;28;20038;-70
2022/03/21 12:30:23;;;;;;;15.10;11.18;;;36.70;30.80;;;;;;4989164;28;20042;-70
2022/03/21 12:33:02;;;;;;;15.88;11.35;;;37.50;30.40;;;;;;4989227;28;20054;-71
2022/03/21 12:35:40;;;;;;;13.52;11.48;;;37.50;30.80;;;;;;4990369;28;20379;-71
2022/03/21 12:38:34;;;;;;;19.60;11.98;;;37.10;30.80;;;;;;4972022;28;20141;-70
2022/03/21 12:41:03;;;;;;;15.32;12.07;;;37.40;30.30;;;;;;4976661;28;20436;-71
2022/03/21 12:43:32;;;;;;;18.52;11.75;;;37.30;30.50;;;;;;4966651;28;20428;-70
2022/03/21 12:46:07;;;;;;;15.48;11.57;;;36.70;30.70;;;;;;4979802;28;20061;-70
2022/03/21 12:48:44;;;;;;;18.20;12.00;;;36.10;31.40;;;;;;4957074;28;20042;-75
2022/03/21 12:51:12;;;;;;;17.92;12.10;;;35.70;30.90;;;;;;4969914;28;20057;-73
2022/03/21 12:53:48;;;;;;;16.42;11.52;;;33.90;30.90;;;;;;4988700;28;20046;-74
2022/03/21 12:56:16;;;;;;;13.70;10.60;;;31.70;31.60;;;;;;4989486;28;20129;-74
2022/03/21 12:58:45;;;;;;;15.20;11.60;;;30.20;32.40;;;;;;4973496;28;20054;-73
2022/03/21 13:01:13;;;;;;;15.82;12.82;;;28.10;33.10;;;;;;4972994;28;20042;-73
2022/03/21 13:03:39;;;;;;;21.52;12.38;;;27.30;34.40;;;;;;4989295;28;20144;-73
2022/03/21 13:11:38;;;;;;;23.67;13.18;;;24.90;37.10;;;;;;4988250;28;20050;-73